Time;durP1;ratioP1;P1;durP2;ratioP2;P2;SDS_P1;SDS_P2;PMS_P1;PMS_P2;Temp;Humidity;BMP_temperature;BMP_pressure;BME280_temperature;BME280_humidity;BME280_pressure;Samples;Min_cycle;Max_cycle;Signal;HPM_P1;HPM_P2
2023/05/09 00:01:11;;;;;;;71.80;39.30;;;;;;;;;;5025636;28;99859;-79
2023/05/09 00:03:38;;;;;;;69.60;39.85;;;;;;;;;;5029537;28;99882;-79
2023/05/09 00:06:05;;;;;;;68.30;40.25;;;;;;;;;;5026333;28;99924;-80
2023/05/09 00:08:32;;;;;;;71.55;39.97;;;;;;;;;;4999903;28;102110;-79
2023/05/09 00:10:58;;;;;;;73.68;39.92;;;;;;;;;;5005915;28;100995;-80
2023/05/09 00:13:25;;;;;;;71.85;41.70;;;;;;;;;;5004915;28;100056;-80
2023/05/09 00:15:52;;;;;;;72.93;40.42;;;;;;;;;;5005934;28;100205;-78
2023/05/09 00:18:20;;;;;;;78.80;41.58;;;;;;;;;;5005593;28;100169;-80
2023/05/09 00:20:47;;;;;;;72.40;40.15;;;;;;;;;;5007183;28;99906;-78
2023/05/09 00:23:15;;;;;;;80.43;41.55;;;;;;;;;;5019132;28;100003;-79
2023/05/09 00:25:43;;;;;;;75.07;41.15;;;;;;;;;;5011082;28;100015;-79
2023/05/09 00:28:09;;;;;;;78.32;40.50;;;;;;;;;;5009646;28;100124;-78
2023/05/09 00:30:36;;;;;;;75.18;39.85;;;;;;;;;;5007559;28;99499;-79
2023/05/09 00:33:02;;;;;;;75.63;41.85;;;;;;;;;;5007789;28;99979;-78
2023/05/09 00:35:30;;;;;;;77.95;41.38;;;;;;;;;;5025152;28;99536;-77
2023/05/09 00:37:56;;;;;;;74.40;39.72;;;;;;;;;;5025665;28;100121;-79
2023/05/09 00:40:23;;;;;;;73.22;40.05;;;;;;;;;;4987931;28;102027;-81
2023/05/09 00:42:50;;;;;;;72.47;40.55;;;;;;;;;;5007460;28;99978;-78
2023/05/09 00:45:16;;;;;;;67.22;39.53;;;;;;;;;;5017232;28;99558;-81
2023/05/09 00:47:43;;;;;;;78.40;42.53;;;;;;;;;;5029369;28;99946;-80
2023/05/09 00:50:09;;;;;;;74.68;41.90;;;;;;;;;;5028666;28;98979;-79
2023/05/09 00:52:37;;;;;;;78.75;41.50;;;;;;;;;;5029204;28;100326;-80
2023/05/09 00:55:05;;;;;;;83.97;45.13;;;;;;;;;;5014713;27;99617;-80
2023/05/09 00:57:32;;;;;;;72.30;40.65;;;;;;;;;;5007840;28;99133;-80
2023/05/09 00:59:59;;;;;;;75.30;43.25;;;;;;;;;;4990431;28;100134;-80
2023/05/09 01:02:26;;;;;;;75.57;40.63;;;;;;;;;;5007839;28;100664;-80
2023/05/09 01:04:52;;;;;;;82.30;42.75;;;;;;;;;;4993459;28;99199;-80
2023/05/09 01:07:34;;;;;;;77.00;40.47;;;;;;;;;;4992241;28;98922;-79
2023/05/09 01:10:18;;;;;;;75.75;43.53;;;;;;;;;;5006627;28;100269;-79
2023/05/09 01:12:48;;;;;;;72.53;41.15;;;;;;;;;;5008927;28;100214;-80
2023/05/09 01:15:20;;;;;;;77.13;41.20;;;;;;;;;;5008848;28;100523;-81
2023/05/09 01:17:47;;;;;;;;;;;;;;;;;;4990213;28;100502;-80
2023/05/09 01:20:19;;;;;;;79.57;41.67;;;;;;;;;;5007032;28;126822;-80
2023/05/09 01:22:45;;;;;;;;;;;;;;;;;;5009492;28;98808;-78
2023/05/09 01:25:19;;;;;;;77.72;41.75;;;;;;;;;;5007423;28;101239;-80
2023/05/09 01:28:06;;;;;;;88.18;42.53;;;;;;;;;;5009096;28;98665;-80
2023/05/09 01:30:33;;;;;;;79.13;42.50;;;;;;;;;;5011894;28;99979;-79
2023/05/09 01:33:00;;;;;;;81.03;44.10;;;;;;;;;;4995381;28;99123;-79
2023/05/09 01:35:28;;;;;;;79.32;42.38;;;;;;;;;;4988765;28;99170;-79
2023/05/09 01:37:55;;;;;;;80.57;44.50;;;;;;;;;;5005969;28;99728;-78
2023/05/09 01:40:22;;;;;;;82.75;42.83;;;;;;;;;;5007557;28;100154;-80
2023/05/09 01:42:51;;;;;;;79.45;43.95;;;;;;;;;;4979224;28;99351;-80
2023/05/09 01:45:18;;;;;;;85.78;44.22;;;;;;;;;;4986033;28;100422;-80
2023/05/09 01:47:46;;;;;;;81.22;42.38;;;;;;;;;;4988334;28;98776;-80
2023/05/09 01:50:13;;;;;;;82.35;44.00;;;;;;;;;;4969588;28;99231;-80
2023/05/09 01:52:41;;;;;;;84.18;46.15;;;;;;;;;;4989954;28;100698;-78
2023/05/09 01:55:08;;;;;;;78.20;44.25;;;;;;;;;;5015817;28;99941;-79
2023/05/09 01:57:35;;;;;;;82.57;45.33;;;;;;;;;;5027482;28;100608;-79
2023/05/09 02:00:02;;;;;;;86.32;45.42;;;;;;;;;;5025934;28;99042;-79
2023/05/09 02:02:38;;;;;;;83.38;44.08;;;;;;;;;;5024952;28;98650;-79
2023/05/09 02:05:06;;;;;;;85.28;44.17;;;;;;;;;;5028234;28;99224;-79
2023/05/09 02:07:33;;;;;;;94.25;47.78;;;;;;;;;;5009646;28;101740;-79
2023/05/09 02:10:02;;;;;;;90.18;46.35;;;;;;;;;;5027902;28;99019;-79
2023/05/09 02:12:28;;;;;;;90.50;44.92;;;;;;;;;;5027726;28;99024;-79
2023/05/09 02:14:55;;;;;;;90.35;46.40;;;;;;;;;;5030471;28;99704;-80
2023/05/09 02:17:21;;;;;;;91.15;46.58;;;;;;;;;;5027889;28;99335;-80
2023/05/09 02:19:47;;;;;;;87.57;46.22;;;;;;;;;;5028179;28;99989;-80
2023/05/09 02:22:14;;;;;;;83.00;45.10;;;;;;;;;;5009578;28;101566;-79
2023/05/09 02:24:42;;;;;;;89.10;45.72;;;;;;;;;;5028120;28;99282;-79
2023/05/09 02:27:10;;;;;;;85.30;44.38;;;;;;;;;;5028056;28;99847;-79
2023/05/09 02:30:00;;;;;;;98.03;46.78;;;;;;;;;;5027983;28;99077;-80
2023/05/09 02:32:28;;;;;;;100.55;44.72;;;;;;;;;;5009585;28;100310;-79
2023/05/09 02:34:54;;;;;;;91.88;47.08;;;;;;;;;;5030355;28;98653;-78
2023/05/09 02:37:22;;;;;;;87.05;45.03;;;;;;;;;;5009059;28;100155;-79
2023/05/09 02:39:48;;;;;;;97.63;47.55;;;;;;;;;;5026967;28;99619;-79
2023/05/09 02:42:19;;;;;;;88.22;46.65;;;;;;;;;;5027069;28;99992;-79
2023/05/09 02:44:45;;;;;;;91.28;45.92;;;;;;;;;;5027420;28;99173;-79
2023/05/09 02:47:14;;;;;;;92.13;46.00;;;;;;;;;;5009386;28;101331;-79
2023/05/09 02:49:40;;;;;;;94.45;44.72;;;;;;;;;;5027067;28;98996;-78
2023/05/09 02:52:07;;;;;;;88.13;45.92;;;;;;;;;;5027501;28;99042;-80
2023/05/09 02:54:33;;;;;;;82.75;44.45;;;;;;;;;;4998764;28;102130;-78
2023/05/09 02:57:00;;;;;;;96.28;48.33;;;;;;;;;;4992369;28;101889;-81
2023/05/09 02:59:26;;;;;;;88.00;46.28;;;;;;;;;;5005997;28;99906;-79
2023/05/09 03:01:55;;;;;;;89.15;45.22;;;;;;;;;;4985941;28;101548;-78
2023/05/09 03:04:22;;;;;;;101.13;46.47;;;;;;;;;;4983205;28;102535;-81
2023/05/09 03:06:49;;;;;;;95.05;45.97;;;;;;;;;;4988903;28;101721;-78
2023/05/09 03:09:15;;;;;;;88.50;45.15;;;;;;;;;;5004766;28;101390;-81
2023/05/09 03:11:42;;;;;;;96.00;48.17;;;;;;;;;;4988888;28;101475;-78
2023/05/09 03:14:09;;;;;;;93.93;45.53;;;;;;;;;;4988762;28;101844;-79
2023/05/09 03:16:36;;;;;;;92.43;46.35;;;;;;;;;;4987625;28;100773;-79
2023/05/09 03:19:05;;;;;;;100.90;49.55;;;;;;;;;;5006507;28;101542;-78
2023/05/09 03:21:32;;;;;;;89.45;46.63;;;;;;;;;;4989157;28;101659;-79
2023/05/09 03:23:59;;;;;;;84.60;45.17;;;;;;;;;;5006343;28;99182;-79
2023/05/09 03:26:26;;;;;;;91.30;46.72;;;;;;;;;;4988939;28;101212;-80
2023/05/09 03:28:53;;;;;;;91.82;46.92;;;;;;;;;;4987332;28;101803;-79
2023/05/09 03:31:20;;;;;;;91.55;46.25;;;;;;;;;;4996886;28;99283;-79
2023/05/09 03:33:46;;;;;;;90.88;47.42;;;;;;;;;;4968063;28;101330;-78
2023/05/09 03:36:14;;;;;;;94.57;47.70;;;;;;;;;;4981957;28;100460;-80
2023/05/09 03:38:42;;;;;;;90.72;47.45;;;;;;;;;;4987900;28;101118;-79
2023/05/09 03:41:08;;;;;;;92.53;46.72;;;;;;;;;;4991758;28;99849;-79
2023/05/09 03:43:34;;;;;;;89.80;44.45;;;;;;;;;;4988656;28;99230;-78
2023/05/09 03:46:01;;;;;;;82.70;44.63;;;;;;;;;;4985954;28;98821;-79
2023/05/09 03:48:27;;;;;;;78.85;42.60;;;;;;;;;;4985837;28;99274;-80
2023/05/09 03:50:54;;;;;;;85.72;43.30;;;;;;;;;;5001517;28;101871;-79
2023/05/09 03:53:23;;;;;;;81.50;43.83;;;;;;;;;;4999452;28;101242;-79
2023/05/09 03:55:50;;;;;;;83.05;42.72;;;;;;;;;;4984874;28;101880;-79
2023/05/09 03:58:18;;;;;;;74.60;40.13;;;;;;;;;;4984584;28;100569;-79
2023/05/09 04:00:46;;;;;;;79.22;42.60;;;;;;;;;;4986458;28;101519;-79
2023/05/09 04:03:19;;;;;;;73.85;39.78;;;;;;;;;;4990832;28;101718;-79
2023/05/09 04:05:48;;;;;;;70.65;39.85;;;;;;;;;;4987215;28;100992;-80
2023/05/09 04:08:25;;;;;;;70.53;39.50;;;;;;;;;;4987798;28;102024;-79
2023/05/09 04:10:52;;;;;;;69.32;37.92;;;;;;;;;;4987801;28;100395;-80
2023/05/09 04:13:18;;;;;;;80.47;39.45;;;;;;;;;;4986879;28;101744;-79
2023/05/09 04:15:45;;;;;;;69.55;38.65;;;;;;;;;;4987451;28;100372;-79
2023/05/09 04:18:12;;;;;;;65.60;38.17;;;;;;;;;;4987534;28;102618;-79
2023/05/09 04:20:38;;;;;;;70.43;37.35;;;;;;;;;;4987755;28;101133;-79
2023/05/09 04:23:09;;;;;;;67.25;37.95;;;;;;;;;;4987634;28;100974;-79
2023/05/09 04:25:36;;;;;;;71.57;38.80;;;;;;;;;;4989749;28;101277;-80
2023/05/09 04:28:03;;;;;;;73.35;37.03;;;;;;;;;;4967298;28;100841;-79
2023/05/09 04:30:29;;;;;;;70.72;35.75;;;;;;;;;;4986210;28;101869;-79
2023/05/09 04:32:56;;;;;;;64.30;35.70;;;;;;;;;;4987822;28;98918;-79
2023/05/09 04:35:25;;;;;;;63.63;36.17;;;;;;;;;;4987331;28;101700;-78
2023/05/09 04:37:52;;;;;;;59.10;34.80;;;;;;;;;;4987686;28;99408;-80
2023/05/09 04:40:19;;;;;;;59.85;34.65;;;;;;;;;;4987380;28;101493;-79
2023/05/09 04:42:56;;;;;;;58.45;33.70;;;;;;;;;;4985748;28;101472;-79
2023/05/09 04:45:25;;;;;;;60.78;35.17;;;;;;;;;;4991308;28;101655;-79
2023/05/09 04:47:52;;;;;;;54.92;32.28;;;;;;;;;;4987964;28;101543;-79
2023/05/09 04:50:18;;;;;;;56.95;33.80;;;;;;;;;;4988494;28;100925;-80
2023/05/09 04:52:45;;;;;;;55.53;33.75;;;;;;;;;;5015176;28;99692;-79
2023/05/09 04:55:11;;;;;;;56.05;31.98;;;;;;;;;;5017149;28;99196;-80
2023/05/09 04:57:42;;;;;;;55.13;31.73;;;;;;;;;;5023948;28;100449;-79
2023/05/09 05:00:10;;;;;;;62.17;31.55;;;;;;;;;;5017346;28;100848;-79
2023/05/09 05:02:37;;;;;;;56.03;32.42;;;;;;;;;;5007893;28;100948;-80
2023/05/09 05:05:04;;;;;;;46.47;29.90;;;;;;;;;;5038287;27;100050;-78
2023/05/09 05:07:40;;;;;;;43.30;29.30;;;;;;;;;;5029973;27;101457;-79
2023/05/09 05:10:08;;;;;;;52.90;30.42;;;;;;;;;;5026652;27;101347;-79
2023/05/09 05:12:35;;;;;;;42.60;29.50;;;;;;;;;;5027706;27;100050;-78
2023/05/09 05:15:06;;;;;;;50.28;28.13;;;;;;;;;;5029243;27;101748;-81
2023/05/09 05:17:33;;;;;;;40.45;26.98;;;;;;;;;;5018544;28;100113;-80
2023/05/09 05:20:05;;;;;;;48.20;25.33;;;;;;;;;;5007488;28;101055;-79
2023/05/09 05:22:31;;;;;;;45.08;26.77;;;;;;;;;;4989896;28;102303;-80
2023/05/09 05:24:58;;;;;;;36.67;24.25;;;;;;;;;;5004811;28;101037;-80
2023/05/09 05:27:24;;;;;;;41.55;25.38;;;;;;;;;;4988013;28;100543;-79
2023/05/09 05:29:52;;;;;;;36.28;23.48;;;;;;;;;;5009553;28;100762;-80
2023/05/09 05:32:19;;;;;;;34.78;24.45;;;;;;;;;;4989557;28;101689;-80
2023/05/09 05:34:45;;;;;;;35.65;24.83;;;;;;;;;;4990919;28;102641;-79
2023/05/09 05:37:12;;;;;;;36.55;23.17;;;;;;;;;;4989593;28;101257;-80
2023/05/09 05:39:40;;;;;;;32.40;23.08;;;;;;;;;;4990676;28;101542;-79
2023/05/09 05:42:07;;;;;;;31.88;21.35;;;;;;;;;;4995715;28;100184;-79
2023/05/09 05:44:34;;;;;;;36.10;22.73;;;;;;;;;;5009266;28;101914;-78
2023/05/09 05:47:00;;;;;;;28.98;21.25;;;;;;;;;;5010285;28;99950;-79
2023/05/09 05:49:27;;;;;;;29.80;20.77;;;;;;;;;;5010421;28;101594;-80
2023/05/09 05:51:53;;;;;;;35.63;19.73;;;;;;;;;;5011973;28;101609;-79
2023/05/09 05:54:21;;;;;;;28.88;19.80;;;;;;;;;;5008521;28;101615;-80
2023/05/09 05:56:47;;;;;;;30.98;20.17;;;;;;;;;;5001795;28;101527;-80
2023/05/09 05:59:15;;;;;;;28.10;18.40;;;;;;;;;;5007191;28;99033;-78
2023/05/09 06:01:41;;;;;;;28.00;18.85;;;;;;;;;;5002039;27;102021;-80
2023/05/09 06:04:08;;;;;;;22.73;17.27;;;;;;;;;;5023881;28;100276;-79
2023/05/09 06:06:35;;;;;;;24.25;17.60;;;;;;;;;;5005604;28;99118;-79
2023/05/09 06:09:01;;;;;;;27.02;18.45;;;;;;;;;;5007023;28;100192;-80
2023/05/09 06:11:28;;;;;;;22.52;17.00;;;;;;;;;;5024545;27;99175;-79
2023/05/09 06:13:54;;;;;;;22.05;16.40;;;;;;;;;;5011890;28;101189;-78
2023/05/09 06:16:21;;;;;;;32.05;17.95;;;;;;;;;;5008219;28;101898;-79
2023/05/09 06:18:49;;;;;;;25.35;17.63;;;;;;;;;;5007527;28;100122;-80
2023/05/09 06:21:15;;;;;;;23.95;16.48;;;;;;;;;;5025656;27;101920;-81
2023/05/09 06:23:41;;;;;;;25.35;17.08;;;;;;;;;;5018130;28;99064;-78
2023/05/09 06:26:28;;;;;;;26.00;17.25;;;;;;;;;;5024189;28;99930;-77
2023/05/09 06:28:55;;;;;;;23.70;17.10;;;;;;;;;;5008283;28;101584;-82
2023/05/09 06:31:21;;;;;;;20.88;16.20;;;;;;;;;;5020517;27;100514;-81
2023/05/09 06:33:51;;;;;;;26.40;16.92;;;;;;;;;;5026838;28;100171;-78
2023/05/09 06:36:17;;;;;;;24.48;17.50;;;;;;;;;;5027569;27;100019;-80
2023/05/09 06:38:44;;;;;;;24.80;17.52;;;;;;;;;;5027169;27;100235;-79
2023/05/09 06:41:10;;;;;;;25.10;17.08;;;;;;;;;;5024871;27;99331;-78
2023/05/09 06:43:36;;;;;;;26.50;16.65;;;;;;;;;;5026412;28;100326;-80
2023/05/09 06:46:03;;;;;;;24.80;17.58;;;;;;;;;;5024727;28;101568;-78
2023/05/09 06:48:29;;;;;;;26.30;17.13;;;;;;;;;;5025218;28;100590;-80
2023/05/09 06:50:56;;;;;;;25.58;17.40;;;;;;;;;;5026566;28;99864;-80
2023/05/09 06:53:22;;;;;;;26.38;17.58;;;;;;;;;;5027017;28;100438;-79
2023/05/09 06:55:49;;;;;;;22.00;17.30;;;;;;;;;;5029592;27;100128;-79
2023/05/09 06:58:15;;;;;;;30.45;18.95;;;;;;;;;;5026206;28;99927;-79
2023/05/09 07:00:41;;;;;;;26.75;17.58;;;;;;;;;;5025256;28;100058;-78
2023/05/09 07:03:09;;;;;;;23.58;17.55;;;;;;;;;;5021302;27;100068;-79
2023/05/09 07:05:35;;;;;;;25.73;18.42;;;;;;;;;;5025971;28;98935;-79
2023/05/09 07:08:02;;;;;;;25.10;17.67;;;;;;;;;;5026898;28;99229;-78
2023/05/09 07:10:29;;;;;;;24.10;17.63;;;;;;;;;;5025867;28;99947;-78
2023/05/09 07:12:56;;;;;;;20.77;18.02;;;;;;;;;;5027164;28;100246;-79
2023/05/09 07:15:22;;;;;;;26.02;18.05;;;;;;;;;;5024713;28;100100;-78
2023/05/09 07:18:07;;;;;;;23.85;17.73;;;;;;;;;;5022851;28;99206;-79
2023/05/09 07:20:33;;;;;;;24.17;17.88;;;;;;;;;;5026172;28;99598;-79
2023/05/09 07:23:04;;;;;;;30.52;18.02;;;;;;;;;;5024713;28;99938;-78
2023/05/09 07:25:31;;;;;;;24.52;18.83;;;;;;;;;;5026336;28;100065;-79
2023/05/09 07:27:57;;;;;;;31.08;18.48;;;;;;;;;;5026096;28;99339;-77
2023/05/09 07:30:24;;;;;;;27.90;18.83;;;;;;;;;;5021837;28;100192;-79
2023/05/09 07:32:50;;;;;;;23.90;18.80;;;;;;;;;;5023977;28;99133;-79
2023/05/09 07:35:18;;;;;;;26.70;19.85;;;;;;;;;;5019379;28;99313;-79
2023/05/09 07:37:44;;;;;;;16.45;13.85;;;;;;;;;;5013740;28;99868;-77
2023/05/09 07:40:11;;;;;;;27.02;19.17;;;;;;;;;;5012247;28;99946;-78
2023/05/09 07:42:38;;;;;;;26.77;18.85;;;;;;;;;;5009701;28;100237;-79
2023/05/09 07:45:05;;;;;;;29.70;18.95;;;;;;;;;;5024695;28;100153;-77
2023/05/09 07:47:31;;;;;;;27.15;19.52;;;;;;;;;;5023902;28;99301;-80
2023/05/09 07:49:58;;;;;;;26.77;20.15;;;;;;;;;;5025938;27;99317;-78
2023/05/09 07:52:24;;;;;;;29.67;19.27;;;;;;;;;;5026162;28;99885;-80
2023/05/09 07:54:51;;;;;;;31.73;20.10;;;;;;;;;;5026182;28;99252;-78
2023/05/09 07:57:17;;;;;;;23.17;19.05;;;;;;;;;;5024695;28;100400;-78
2023/05/09 07:59:44;;;;;;;22.77;18.40;;;;;;;;;;5025187;28;99997;-77
2023/05/09 08:02:10;;;;;;;26.70;19.73;;;;;;;;;;5029040;28;100148;-77
2023/05/09 08:04:37;;;;;;;27.95;19.17;;;;;;;;;;5024816;28;99881;-79
2023/05/09 08:07:03;;;;;;;23.98;18.50;;;;;;;;;;5025412;28;100216;-78
2023/05/09 08:09:30;;;;;;;30.02;20.55;;;;;;;;;;5025434;28;100531;-78
2023/05/09 08:11:57;;;;;;;24.45;18.58;;;;;;;;;;5022537;28;100140;-79
2023/05/09 08:14:25;;;;;;;23.77;18.45;;;;;;;;;;5024317;28;99222;-78
2023/05/09 08:16:52;;;;;;;23.10;17.20;;;;;;;;;;5009819;28;99596;-78
2023/05/09 08:19:19;;;;;;;25.02;18.40;;;;;;;;;;5003910;28;99647;-79
2023/05/09 08:21:46;;;;;;;21.73;18.33;;;;;;;;;;5005741;28;99970;-80
2023/05/09 08:24:12;;;;;;;24.42;17.90;;;;;;;;;;5008795;28;100941;-80
2023/05/09 08:26:39;;;;;;;22.80;18.20;;;;;;;;;;5004428;28;100224;-78
2023/05/09 08:29:05;;;;;;;24.30;17.75;;;;;;;;;;5005217;28;100164;-80
2023/05/09 08:31:31;;;;;;;20.45;16.45;;;;;;;;;;5004391;28;99044;-80
2023/05/09 08:33:58;;;;;;;23.08;17.65;;;;;;;;;;5004923;28;102262;-80
2023/05/09 08:36:25;;;;;;;16.92;14.85;;;;;;;;;;5014298;28;100359;-80
2023/05/09 08:38:51;;;;;;;19.77;14.95;;;;;;;;;;5025678;28;100088;-80
2023/05/09 08:41:20;;;;;;;21.95;14.57;;;;;;;;;;5024003;28;100274;-81
2023/05/09 08:43:49;;;;;;;16.25;14.18;;;;;;;;;;5025784;28;100187;-80
2023/05/09 08:46:17;;;;;;;16.13;14.52;;;;;;;;;;5026916;28;99124;-81
2023/05/09 08:48:43;;;;;;;15.43;13.57;;;;;;;;;;5024967;28;101300;-78
2023/05/09 08:51:10;;;;;;;14.45;12.88;;;;;;;;;;5025719;28;99100;-80
2023/05/09 08:53:37;;;;;;;16.40;14.32;;;;;;;;;;5024127;28;100179;-80
2023/05/09 08:56:03;;;;;;;16.95;13.60;;;;;;;;;;5023869;28;100679;-78
2023/05/09 08:58:30;;;;;;;17.17;13.05;;;;;;;;;;5025411;28;100022;-78
2023/05/09 09:00:57;;;;;;;13.07;11.77;;;;;;;;;;5024370;28;100441;-78
2023/05/09 09:03:25;;;;;;;13.65;11.48;;;;;;;;;;5027040;27;100724;-78
2023/05/09 09:05:52;;;;;;;14.18;12.55;;;;;;;;;;5032662;28;99929;-78
2023/05/09 09:08:20;;;;;;;12.68;11.38;;;;;;;;;;5027058;28;99213;-79
2023/05/09 09:10:47;;;;;;;13.15;11.75;;;;;;;;;;5028090;28;100298;-80
2023/05/09 09:13:13;;;;;;;14.20;10.73;;;;;;;;;;5026917;28;99329;-79
2023/05/09 09:15:42;;;;;;;11.43;10.25;;;;;;;;;;5028162;28;100999;-79
2023/05/09 09:18:10;;;;;;;11.27;9.65;;;;;;;;;;5027982;28;99208;-80
2023/05/09 09:20:39;;;;;;;12.15;10.32;;;;;;;;;;5027958;28;99070;-79
2023/05/09 09:23:09;;;;;;;11.48;10.38;;;;;;;;;;5027866;28;100200;-79
2023/05/09 09:25:35;;;;;;;11.10;10.00;;;;;;;;;;5028164;28;100253;-80
2023/05/09 09:28:05;;;;;;;11.25;10.20;;;;;;;;;;5030927;28;99017;-79
2023/05/09 09:30:31;;;;;;;11.27;10.13;;;;;;;;;;5027976;28;100141;-80
2023/05/09 09:32:57;;;;;;;9.70;8.80;;;;;;;;;;5028543;28;99332;-81
2023/05/09 09:35:24;;;;;;;13.48;10.35;;;;;;;;;;5028807;28;100780;-81
2023/05/09 09:37:55;;;;;;;10.88;9.80;;;;;;;;;;5026931;28;99386;-80
2023/05/09 09:40:24;;;;;;;10.75;9.60;;;;;;;;;;5027423;28;100321;-81
2023/05/09 09:42:51;;;;;;;11.43;10.32;;;;;;;;;;5029567;28;100387;-79
2023/05/09 09:45:18;;;;;;;10.27;9.10;;;;;;;;;;5027415;28;99816;-81
2023/05/09 09:47:46;;;;;;;10.38;9.43;;;;;;;;;;5028246;28;99987;-81
2023/05/09 09:50:13;;;;;;;8.90;8.20;;;;;;;;;;5030394;28;99217;-81
2023/05/09 09:52:50;;;;;;;7.93;7.13;;;;;;;;;;5028330;28;99789;-81
2023/05/09 09:55:17;;;;;;;9.63;8.82;;;;;;;;;;5028818;28;99987;-81
2023/05/09 09:57:44;;;;;;;9.60;8.65;;;;;;;;;;5025465;28;100312;-81
2023/05/09 10:00:12;;;;;;;9.40;8.38;;;;;;;;;;5027397;28;98939;-80
2023/05/09 10:02:52;;;;;;;8.63;7.90;;;;;;;;;;5026586;28;101132;-82
2023/05/09 10:05:20;;;;;;;9.05;8.15;;;;;;;;;;5027002;28;100186;-82
2023/05/09 10:07:59;;;;;;;10.07;9.15;;;;;;;;;;5027227;28;99711;-81
2023/05/09 10:10:27;;;;;;;9.35;8.45;;;;;;;;;;5026426;28;99609;-81
2023/05/09 10:12:57;;;;;;;9.73;8.82;;;;;;;;;;5018405;28;100239;-82
2023/05/09 10:15:24;;;;;;;9.32;8.43;;;;;;;;;;5010136;27;100017;-81
2023/05/09 10:17:53;;;;;;;8.85;8.05;;;;;;;;;;5009182;28;100921;-80
2023/05/09 10:20:20;;;;;;;8.45;7.75;;;;;;;;;;5007053;28;100420;-82
2023/05/09 10:22:47;;;;;;;8.75;7.85;;;;;;;;;;5007586;28;100376;-81
2023/05/09 10:25:18;;;;;;;10.23;9.27;;;;;;;;;;5018930;28;100277;-81
2023/05/09 10:27:45;;;;;;;9.73;8.80;;;;;;;;;;5027337;28;100067;-81
2023/05/09 10:30:15;;;;;;;9.35;8.30;;;;;;;;;;5028889;28;99794;-82
2023/05/09 10:32:46;;;;;;;10.80;8.10;;;;;;;;;;5025839;28;100579;-79
2023/05/09 10:35:15;;;;;;;8.27;7.57;;;;;;;;;;5030849;28;99890;-81
2023/05/09 10:37:43;;;;;;;9.27;8.38;;;;;;;;;;5027747;28;99952;-81
2023/05/09 10:40:14;;;;;;;13.75;8.63;;;;;;;;;;5026469;28;99215;-81
2023/05/09 10:42:44;;;;;;;9.80;8.30;;;;;;;;;;5027502;28;100128;-80
2023/05/09 10:45:11;;;;;;;9.68;8.73;;;;;;;;;;5026629;28;100220;-79
2023/05/09 10:47:42;;;;;;;11.50;8.25;;;;;;;;;;5017330;28;99803;-80
2023/05/09 10:50:09;;;;;;;12.10;8.45;;;;;;;;;;5025590;27;100104;-79
2023/05/09 10:52:54;;;;;;;9.52;8.73;;;;;;;;;;5026614;28;99936;-79
2023/05/09 10:55:21;;;;;;;9.90;9.02;;;;;;;;;;5019656;28;100899;-78
2023/05/09 10:57:52;;;;;;;9.27;8.38;;;;;;;;;;5020092;27;99898;-81
2023/05/09 11:00:23;;;;;;;9.65;8.70;;;;;;;;;;5007613;28;100265;-80
2023/05/09 11:03:05;;;;;;;9.55;8.55;;;;;;;;;;5008891;28;99128;-81
2023/05/09 11:05:37;;;;;;;11.80;8.88;;;;;;;;;;5026747;28;99814;-80
2023/05/09 11:08:35;;;;;;;11.45;9.40;;;;;;;;;;5025516;28;99084;-83
2023/05/09 11:11:05;;;;;;;10.82;9.18;;;;;;;;;;4980618;28;98860;-80
2023/05/09 11:13:36;;;;;;;9.88;9.02;;;;;;;;;;5019298;28;100054;-80
2023/05/09 11:16:03;;;;;;;12.20;9.43;;;;;;;;;;5025932;28;99860;-81
2023/05/09 11:18:34;;;;;;;12.38;10.18;;;;;;;;;;5028554;28;100321;-80
2023/05/09 11:21:07;;;;;;;12.35;10.60;;;;;;;;;;5005706;28;101095;-81
2023/05/09 11:23:33;;;;;;;10.00;9.00;;;;;;;;;;5005652;28;100056;-80
2023/05/09 11:26:03;;;;;;;10.10;9.10;;;;;;;;;;5005751;28;99127;-80
2023/05/09 11:28:30;;;;;;;9.85;8.85;;;;;;;;;;5014070;27;100011;-82
2023/05/09 11:31:09;;;;;;;9.13;8.32;;;;;;;;;;5026685;27;99519;-80
2023/05/09 11:33:36;;;;;;;9.10;8.27;;;;;;;;;;5040552;27;100224;-81
2023/05/09 11:36:17;;;;;;;8.45;7.78;;;;;;;;;;5026017;28;99688;-78
2023/05/09 11:38:47;;;;;;;9.25;8.20;;;;;;;;;;5026495;28;100367;-78
2023/05/09 11:41:14;;;;;;;9.10;8.30;;;;;;;;;;5029649;28;100009;-79
2023/05/09 11:43:41;;;;;;;8.68;7.55;;;;;;;;;;5024671;28;100231;-80
2023/05/09 11:46:08;;;;;;;9.30;8.30;;;;;;;;;;5019990;28;99930;-80
2023/05/09 11:48:38;;;;;;;13.25;8.25;;;;;;;;;;5023947;28;99873;-80
2023/05/09 11:51:05;;;;;;;9.80;8.80;;;;;;;;;;5025605;28;100467;-79
2023/05/09 11:53:32;;;;;;;9.77;8.85;;;;;;;;;;5024388;28;99068;-79
2023/05/09 11:56:01;;;;;;;12.07;8.90;;;;;;;;;;5026062;28;98881;-80
2023/05/09 11:58:27;;;;;;;10.70;9.70;;;;;;;;;;5024558;28;100180;-80
2023/05/09 12:00:53;;;;;;;14.02;10.13;;;;;;;;;;5023243;28;99982;-81
2023/05/09 12:03:20;;;;;;;12.68;10.00;;;;;;;;;;5027597;28;99911;-79
2023/05/09 12:05:47;;;;;;;11.00;10.00;;;;;;;;;;5023726;28;99907;-80
2023/05/09 12:08:14;;;;;;;10.50;9.50;;;;;;;;;;5027200;27;100197;-80
2023/05/09 12:10:41;;;;;;;9.77;9.05;;;;;;;;;;5045311;27;100375;-78
2023/05/09 12:13:09;;;;;;;12.07;9.23;;;;;;;;;;5024316;27;100323;-79
2023/05/09 12:15:36;;;;;;;10.00;9.23;;;;;;;;;;5021745;27;100210;-78
2023/05/09 12:18:04;;;;;;;10.18;9.38;;;;;;;;;;5010715;27;99816;-78
2023/05/09 12:20:41;;;;;;;13.95;10.75;;;;;;;;;;5022397;28;100286;-79
2023/05/09 12:23:11;;;;;;;9.82;8.93;;;;;;;;;;5012861;28;100122;-79
2023/05/09 12:25:37;;;;;;;14.60;8.43;;;;;;;;;;5017072;28;99636;-79
2023/05/09 12:28:04;;;;;;;10.07;7.82;;;;;;;;;;5021274;28;99272;-80
2023/05/09 12:30:31;;;;;;;9.60;8.30;;;;;;;;;;5023872;28;100744;-78
2023/05/09 12:32:57;;;;;;;8.50;7.72;;;;;;;;;;5011459;27;104044;-78
2023/05/09 12:35:24;;;;;;;8.30;7.60;;;;;;;;;;5014825;28;100031;-79
2023/05/09 12:37:56;;;;;;;8.32;7.18;;;;;;;;;;5005707;28;99533;-79
2023/05/09 12:40:23;;;;;;;8.32;7.63;;;;;;;;;;5024188;27;99919;-79
2023/05/09 12:42:53;;;;;;;7.50;6.93;;;;;;;;;;5024048;28;99962;-79
2023/05/09 12:45:19;;;;;;;8.60;7.90;;;;;;;;;;5023365;28;100197;-79
2023/05/09 12:47:50;;;;;;;12.27;8.23;;;;;;;;;;5025312;28;99088;-80
2023/05/09 12:50:16;;;;;;;8.98;7.50;;;;;;;;;;5013623;27;99980;-80
2023/05/09 12:52:43;;;;;;;8.95;8.25;;;;;;;;;;5019278;28;100411;-79
2023/05/09 12:55:28;;;;;;;8.77;8.07;;;;;;;;;;5018034;28;100361;-79
2023/05/09 12:58:02;;;;;;;8.20;7.50;;;;;;;;;;5023355;28;101249;-79
2023/05/09 13:00:40;;;;;;;9.35;8.55;;;;;;;;;;5026023;27;99910;-79
2023/05/09 13:03:18;;;;;;;9.02;8.23;;;;;;;;;;5018121;27;99144;-79
2023/05/09 13:05:52;;;;;;;9.98;8.98;;;;;;;;;;5014049;27;100301;-78
2023/05/09 13:08:20;;;;;;;8.65;7.57;;;;;;;;;;5023363;28;99449;-80
2023/05/09 13:10:46;;;;;;;8.32;7.72;;;;;;;;;;5017362;27;100245;-79
2023/05/09 13:13:16;;;;;;;19.27;9.05;;;;;;;;;;5014737;27;99124;-79
2023/05/09 13:15:42;;;;;;;8.57;7.78;;;;;;;;;;5024898;28;99972;-80
2023/05/09 13:18:09;;;;;;;8.95;7.72;;;;;;;;;;5011789;27;100710;-81
2023/05/09 13:20:36;;;;;;;9.23;8.50;;;;;;;;;;5019867;28;99943;-81
2023/05/09 13:23:02;;;;;;;8.50;7.70;;;;;;;;;;5022745;28;99618;-80
2023/05/09 13:25:29;;;;;;;8.60;7.88;;;;;;;;;;5024338;28;99031;-81
2023/05/09 13:27:55;;;;;;;8.75;7.93;;;;;;;;;;5025034;28;99993;-80
2023/05/09 13:30:22;;;;;;;8.50;7.88;;;;;;;;;;5027284;28;100057;-81
2023/05/09 13:32:48;;;;;;;8.13;7.40;;;;;;;;;;5022220;28;99334;-82
2023/05/09 13:35:15;;;;;;;8.35;7.68;;;;;;;;;;5024287;28;100098;-80
2023/05/09 13:37:42;;;;;;;7.45;6.95;;;;;;;;;;5024876;28;100237;-80
2023/05/09 13:40:09;;;;;;;7.35;6.82;;;;;;;;;;5024885;28;99124;-79
2023/05/09 13:42:35;;;;;;;9.15;8.25;;;;;;;;;;5023332;28;98995;-80
2023/05/09 13:45:02;;;;;;;8.30;7.60;;;;;;;;;;5024572;28;102041;-79
2023/05/09 13:47:28;;;;;;;5.72;5.32;;;;;;;;;;5021765;28;99328;-79
2023/05/09 13:49:54;;;;;;;5.43;5.03;;;;;;;;;;5026224;27;99919;-81
2023/05/09 13:52:22;;;;;;;7.05;4.65;;;;;;;;;;5029090;28;99562;-80
2023/05/09 13:54:48;;;;;;;5.72;4.47;;;;;;;;;;5026774;28;98989;-80
2023/05/09 13:57:14;;;;;;;5.57;5.13;;;;;;;;;;5027319;28;100420;-80
2023/05/09 13:59:41;;;;;;;5.30;4.90;;;;;;;;;;5027902;28;100664;-81
2023/05/09 14:02:10;;;;;;;5.03;4.75;;;;;;;;;;5028093;28;99470;-81
2023/05/09 14:04:37;;;;;;;5.28;4.97;;;;;;;;;;5027398;28;99610;-80
2023/05/09 14:07:04;;;;;;;5.70;5.32;;;;;;;;;;5025735;28;100012;-79
2023/05/09 14:09:37;;;;;;;6.97;5.80;;;;;;;;;;5007471;28;100041;-79
2023/05/09 14:12:03;;;;;;;6.60;6.00;;;;;;;;;;5024384;28;100081;-79
2023/05/09 14:14:29;;;;;;;6.55;6.05;;;;;;;;;;5029943;28;98924;-80
2023/05/09 14:16:57;;;;;;;6.25;5.85;;;;;;;;;;5027411;28;99382;-79
2023/05/09 14:19:25;;;;;;;5.72;5.35;;;;;;;;;;5026710;28;100176;-79
2023/05/09 14:21:52;;;;;;;5.15;4.85;;;;;;;;;;5012791;28;100122;-80
2023/05/09 14:24:18;;;;;;;5.78;5.32;;;;;;;;;;5006889;28;100947;-81